Time;durP1;ratioP1;P1;durP2;ratioP2;P2;SDS_P1;SDS_P2;PMS_P1;PMS_P2;Temp;Humidity;BMP_temperature;BMP_pressure;BME280_temperature;BME280_humidity;BME280_pressure;Samples;Min_cycle;Max_cycle;Signal;HPM_P1;HPM_P2
2021/04/01 00:02:07;;;;;;;18.70;10.73;;;;;;;7.26;69.39;101700.84;5052363;28;20055;-90
2021/04/01 00:04:34;;;;;;;20.08;9.82;;;;;;;7.31;69.07;101697.56;5058829;28;20035;-90
2021/04/01 00:07:02;;;;;;;18.80;10.27;;;;;;;7.26;69.79;101702.69;5055325;28;20034;-89
2021/04/01 00:09:31;;;;;;;21.27;10.43;;;;;;;7.26;70.02;101692.84;5052897;28;20060;-87
2021/04/01 00:11:56;;;;;;;19.67;10.20;;;;;;;7.25;70.12;101687.72;5074489;28;20021;-88
2021/04/01 00:14:25;;;;;;;23.75;13.32;;;;;;;7.20;70.82;101687.53;5057816;28;20031;-87
2021/04/01 00:16:51;;;;;;;34.78;17.10;;;;;;;7.11;72.08;101683.41;5061491;28;20020;-87
2021/04/01 00:19:17;;;;;;;35.60;15.55;;;;;;;7.06;72.01;101676.00;5061379;28;20629;-88
2021/04/01 00:21:43;;;;;;;31.23;16.40;;;;;;;7.00;72.53;101673.31;5056582;28;20135;-88
2021/04/01 00:24:11;;;;;;;32.15;16.45;;;;;;;7.02;72.28;101673.97;5059725;28;20058;-91
2021/04/01 00:26:37;;;;;;;32.33;16.27;;;;;;;7.00;72.24;101671.47;5061917;28;20255;-89
2021/04/01 00:29:03;;;;;;;30.63;16.95;;;;;;;7.04;71.20;101670.06;5073022;28;20496;-89
2021/04/01 00:31:29;;;;;;;35.20;17.75;;;;;;;6.98;71.58;101669.00;5091171;28;20039;-90
2021/04/01 00:33:54;;;;;;;36.35;18.67;;;;;;;6.93;72.11;101666.13;5071713;28;20044;-91
2021/04/01 00:36:20;;;;;;;37.53;19.05;;;;;;;6.79;73.28;101661.78;5062654;28;20032;-91
2021/04/01 00:38:54;;;;;;;39.25;18.13;;;;;;;6.77;73.19;101658.50;5060364;28;20062;-90
2021/04/01 00:41:20;;;;;;;34.70;17.90;;;;;;;6.74;72.39;101658.91;5063403;28;20036;-91
2021/04/01 00:43:46;;;;;;;51.83;17.77;;;;;;;6.67;72.69;101650.09;5052515;28;20055;-91
2021/04/01 00:46:14;;;;;;;36.70;17.33;;;;;;;6.65;71.96;101654.81;5063518;28;20401;-91
2021/04/01 00:48:40;;;;;;;32.58;18.50;;;;;;;6.69;71.29;101663.22;5055116;28;20028;-92
2021/04/01 00:51:05;;;;;;;39.20;20.35;;;;;;;6.64;72.93;101659.31;5069579;28;20021;-90
2021/04/01 00:53:31;;;;;;;43.03;20.20;;;;;;;6.62;73.05;101655.19;5053038;28;20390;-90
2021/04/01 00:56:01;;;;;;;36.28;19.13;;;;;;;6.63;72.73;101654.97;5052725;28;20478;-90
2021/04/01 00:58:28;;;;;;;38.80;19.58;;;;;;;6.61;72.37;101654.34;5052948;28;20021;-90
2021/04/01 01:01:12;;;;;;;40.03;20.98;;;;;;;6.44;73.44;101646.91;5069635;28;20059;-90
2021/04/01 01:03:38;;;;;;;42.05;20.58;;;;;;;6.51;72.23;101647.78;5052461;28;20052;-90
2021/04/01 01:06:04;;;;;;;41.83;22.83;;;;;;;6.52;72.22;101649.44;5052771;28;20044;-90
2021/04/01 01:08:32;;;;;;;51.13;22.48;;;;;;;6.56;72.49;101648.00;5053082;28;20060;-90
2021/04/01 01:10:58;;;;;;;45.58;21.77;;;;;;;6.55;72.66;101643.69;5059027;28;20028;-89
2021/04/01 01:13:24;;;;;;;35.05;20.52;;;;;;;6.48;73.07;101645.53;5061731;28;20036;-88
2021/04/01 01:15:50;;;;;;;35.47;18.85;;;;;;;6.39;73.87;101649.38;5057981;28;20021;-89
2021/04/01 01:18:18;;;;;;;36.80;19.48;;;;;;;6.35;74.45;101638.31;5071812;28;20036;-90
2021/04/01 01:20:45;;;;;;;44.75;19.65;;;;;;;6.34;73.45;101636.66;5061260;28;20036;-89
2021/04/01 01:23:12;;;;;;;43.33;21.77;;;;;;;6.16;76.37;101644.34;5068497;28;20027;-89
2021/04/01 01:25:45;;;;;;;38.65;19.92;;;;;;;6.18;75.63;101648.44;5064690;28;20478;-91
2021/04/01 01:28:10;;;;;;;41.08;21.00;;;;;;;6.14;77.84;101641.88;5068782;28;20031;-89
2021/04/01 01:30:39;;;;;;;41.47;20.35;;;;;;;6.23;77.22;101629.22;5065383;28;20035;-89
2021/04/01 01:33:06;;;;;;;37.45;20.10;;;;;;;6.35;75.47;101625.81;5059653;28;20028;-87
2021/04/01 01:35:38;;;;;;;31.25;17.80;;;;;;;6.51;74.43;101653.94;5058213;28;20032;-87
2021/04/01 01:38:06;;;;;;;32.70;17.10;;;;;;;6.64;73.80;101663.78;5058073;28;20032;-87
2021/04/01 01:40:33;;;;;;;29.83;16.73;;;;;;;6.68;73.52;101662.38;5061693;28;20028;-88
2021/04/01 01:43:01;;;;;;;30.23;16.45;;;;;;;6.63;74.29;101656.81;5057748;28;20271;-88
2021/04/01 01:45:28;;;;;;;31.52;15.63;;;;;;;6.66;73.06;101651.94;5055424;28;20436;-88
2021/04/01 01:47:54;;;;;;;31.17;17.10;;;;;;;6.67;72.86;101639.44;5058341;28;20320;-88
2021/04/01 01:50:23;;;;;;;32.25;18.65;;;;;;;6.52;74.68;101641.44;5070280;28;20039;-90
2021/04/01 01:52:49;;;;;;;30.77;16.60;;;;;;;6.27;77.25;101643.78;5070893;28;20443;-92
2021/04/01 01:55:15;;;;;;;30.35;17.35;;;;;;;6.38;75.81;101637.06;5058802;28;20024;-89
2021/04/01 01:57:40;;;;;;;35.47;19.38;;;;;;;6.56;74.35;101643.50;5056873;28;20518;-88
2021/04/01 02:00:13;;;;;;;35.05;18.40;;;;;;;6.65;74.16;101634.31;5061045;28;20024;-85
2021/04/01 02:02:39;;;;;;;35.78;19.10;;;;;;;6.72;74.09;101633.50;5055740;28;20031;-86
2021/04/01 02:05:13;;;;;;;34.55;19.42;;;;;;;6.65;75.59;101628.19;5055818;28;20277;-88
2021/04/01 02:07:39;;;;;;;35.60;18.83;;;;;;;6.43;77.65;101623.97;5066073;28;20036;-90
2021/04/01 02:10:07;;;;;;;36.53;18.70;;;;;;;6.53;76.73;101627.09;5067795;28;20042;-89
2021/04/01 02:12:32;;;;;;;38.65;17.90;;;;;;;6.42;77.74;101627.66;5067427;28;20055;-88
2021/04/01 02:14:58;;;;;;;34.20;18.55;;;;;;;6.17;80.46;101633.50;5070050;28;20259;-88
2021/04/01 02:17:25;;;;;;;31.48;18.13;;;;;;;6.21;80.06;101636.59;5064437;28;20513;-90
2021/04/01 02:20:26;;;;;;;36.13;19.02;;;;;;;6.39;78.26;101617.41;5056231;28;20028;-90
2021/04/01 02:22:52;;;;;;;37.20;19.42;;;;;;;6.58;75.91;101614.00;5057472;28;20394;-87
2021/04/01 02:25:18;;;;;;;37.58;17.77;;;;;;;6.63;75.98;101616.88;5057653;28;20039;-88
2021/04/01 02:27:53;;;;;;;;;;;;;;;;;;;;;
2021/04/01 02:30:34;;;;;;;34.03;18.60;;;;;;;6.59;76.24;101608.47;5070089;28;20482;-92
2021/04/01 02:33:00;;;;;;;34.67;17.42;;;;;;;6.71;74.96;101611.38;5066237;28;20035;-92
2021/04/01 02:35:37;;;;;;;35.58;16.77;;;;;;;6.74;75.46;101605.66;5070141;28;20438;-92
2021/04/01 02:38:12;;;;;;;28.63;16.33;;;;;;;6.76;75.27;101608.94;5069486;28;20028;-92
2021/04/01 02:40:57;;;;;;;;;;;;;;;;;;;;;
2021/04/01 02:45:57;;;;;;;24.30;14.60;;;;;;;6.78;73.72;101593.56;5063265;28;19916;-88
2021/04/01 02:48:23;;;;;;;29.48;16.05;;;;;;;6.76;74.39;101584.97;5055161;28;20302;-88
2021/04/01 02:50:48;;;;;;;29.45;16.70;;;;;;;6.77;74.25;101583.13;5053203;28;20056;-88
2021/04/01 02:53:17;;;;;;;27.50;15.18;;;;;;;6.74;74.26;101588.84;5073765;28;20063;-93
2021/04/01 02:55:46;;;;;;;25.13;14.88;;;;;;;6.73;74.29;101577.38;5071921;28;20110;-91
2021/04/01 02:58:13;;;;;;;26.83;16.08;;;;;;;6.76;73.83;101584.13;5054714;28;20086;-88
2021/04/01 03:00:38;;;;;;;35.05;18.25;;;;;;;6.65;74.84;101581.06;5065948;28;20371;-94
2021/04/01 03:03:26;;;;;;;29.73;17.17;;;;;;;6.47;78.25;101585.31;5071395;28;20035;-95
2021/04/01 03:05:55;;;;;;;30.92;16.90;;;;;;;6.46;78.50;101578.31;5069249;28;20107;-89
2021/04/01 03:08:25;;;;;;;27.45;16.30;;;;;;;6.60;77.01;101580.00;5063011;28;20127;-93
2021/04/01 03:10:50;;;;;;;33.08;16.95;;;;;;;6.61;77.70;101581.66;5050522;28;20494;-94
2021/04/01 03:13:17;;;;;;;31.33;17.60;;;;;;;6.66;76.75;101574.72;5054956;28;20028;-88
2021/04/01 03:15:43;;;;;;;29.48;15.93;;;;;;;6.68;76.50;101574.50;5064394;28;20028;-87
2021/04/01 03:18:08;;;;;;;34.42;16.65;;;;;;;6.70;76.17;101583.13;5067462;28;20036;-86
2021/04/01 03:20:34;;;;;;;25.75;15.25;;;;;;;6.63;76.79;101582.25;5067637;28;20036;-88
2021/04/01 03:23:02;;;;;;;27.20;16.40;;;;;;;6.68;75.55;101587.81;5056198;28;20042;-89
2021/04/01 03:25:28;;;;;;;33.17;16.48;;;;;;;6.71;74.71;101595.41;5060070;28;20465;-89
2021/04/01 03:27:54;;;;;;;31.42;17.13;;;;;;;6.58;76.45;101582.06;5056200;28;20119;-88
2021/04/01 03:30:20;;;;;;;28.05;16.60;;;;;;;6.62;75.99;101585.94;5079059;28;20171;-89
2021/04/01 03:32:51;;;;;;;27.88;16.23;;;;;;;6.65;74.90;101593.56;5070299;28;20028;-92
2021/04/01 03:35:22;;;;;;;27.13;14.85;;;;;;;6.61;75.19;101600.28;5069258;28;20035;-90
2021/04/01 03:37:57;;;;;;;29.15;16.52;;;;;;;6.55;76.37;101601.09;5067185;28;20211;-93
2021/04/01 03:40:24;;;;;;;;;;;;;;;6.48;76.96;101597.59;5064828;28;20115;-87
2021/04/01 03:42:49;;;;;;;30.75;16.55;;;;;;;6.60;74.79;101591.47;5052398;28;20016;-87
2021/04/01 03:45:16;;;;;;;28.00;15.15;;;;;;;6.64;74.71;101581.25;5071874;28;21336;-89
2021/04/01 03:47:42;;;;;;;29.35;15.60;;;;;;;6.68;75.01;101579.84;5059802;28;20681;-87
2021/04/01 03:50:10;;;;;;;29.08;15.93;;;;;;;6.71;74.28;101568.78;5059465;28;20521;-91
2021/04/01 03:52:40;;;;;;;29.77;15.63;;;;;;;6.74;74.04;101572.88;5067165;28;20322;-92
2021/04/01 03:55:52;;;;;;;29.52;15.30;;;;;;;6.73;74.06;101566.72;5066908;28;20033;-92
2021/04/01 03:58:02;;;;;;;30.70;15.93;;;;;;;6.79;73.60;101557.09;5061905;28;20723;-91
2021/04/01 04:00:31;;;;;;;;;;;;;;;6.76;73.38;101555.66;5052649;28;20028;-91
2021/04/01 04:11:40;;;;;;;28.52;15.98;;;;;;;6.49;77.95;101576.09;5058489;28;20051;-90
2021/04/01 04:13:49;;;;;;;31.00;17.02;;;;;;;6.65;76.39;101580.25;5040977;28;20401;-90
2021/04/01 04:16:19;;;;;;;28.45;15.77;;;;;;;6.78;75.46;101580.25;5061111;28;20106;-90
2021/04/01 04:18:48;;;;;;;28.42;16.42;;;;;;;6.84;75.92;101584.78;5059307;28;20039;-90
2021/04/01 04:21:26;;;;;;;;;;;;;;;;;;;;;
2021/04/01 04:23:52;;;;;;;27.70;15.52;;;;;;;6.88;76.06;101575.34;5052038;28;20031;-90
2021/04/01 04:26:21;;;;;;;29.05;15.70;;;;;;;7.05;74.75;101585.63;5059755;28;20017;-90
2021/04/01 04:28:56;;;;;;;28.90;16.38;;;;;;;7.16;74.58;101569.00;5068523;28;20091;-91
2021/04/01 04:31:24;;;;;;;31.77;17.00;;;;;;;7.19;75.07;101573.94;5067731;28;20035;-92
2021/04/01 04:33:50;;;;;;;24.73;15.45;;;;;;;7.26;74.36;101578.25;5066411;28;20437;-91
2021/04/01 04:36:18;;;;;;;27.85;15.48;;;;;;;7.34;73.88;101565.72;5050790;28;20021;-90
2021/04/01 04:38:46;;;;;;;26.00;15.65;;;;;;;7.32;74.72;101565.91;5066840;28;20048;-91
2021/04/01 04:41:15;;;;;;;28.80;15.45;;;;;;;7.23;76.41;101561.84;5066157;28;20025;-91
2021/04/01 04:43:40;;;;;;;28.48;15.68;;;;;;;7.30;75.48;101569.81;5063360;28;20116;-92
2021/04/01 04:46:09;;;;;;;31.98;16.83;;;;;;;7.32;75.13;101575.75;5059038;28;20557;-91
2021/04/01 04:48:44;;;;;;;;;;;;;;;;;;;;;
2021/04/01 04:51:10;;;;;;;26.52;15.13;;;;;;;7.26;75.39;101572.09;5052131;28;20037;-90
2021/04/01 04:53:36;;;;;;;27.20;16.38;;;;;;;7.41;74.44;101558.53;5056886;28;20036;-90
2021/04/01 04:56:14;;;;;;;27.25;15.63;;;;;;;7.48;73.82;101546.81;5060066;28;20040;-89
2021/04/01 05:05:14;;;;;;;29.77;15.88;;;;;;;7.43;75.12;101562.63;5068426;28;20036;-94
2021/04/01 05:07:40;;;;;;;27.65;14.85;;;;;;;7.52;73.70;101557.88;5055839;28;20482;-85
2021/04/01 05:10:06;;;;;;;25.30;15.23;;;;;;;7.58;73.52;101560.56;5053913;28;20025;-86
2021/04/01 05:12:32;;;;;;;26.70;15.65;;;;;;;7.69;73.21;101560.94;5059344;28;20040;-86
2021/04/01 05:14:57;;;;;;;29.40;15.05;;;;;;;7.77;72.72;101568.72;5054086;28;20037;-86
2021/04/01 05:17:23;;;;;;;24.35;14.45;;;;;;;7.80;73.00;101573.63;5051732;28;20032;-85
2021/04/01 05:19:53;;;;;;;24.23;15.20;;;;;;;7.81;73.75;101581.44;5049863;28;20031;-86
2021/04/01 05:24:48;;;;;;;24.48;14.45;;;;;;;7.84;72.77;101593.53;5052320;28;20128;-86
2021/04/01 05:27:31;;;;;;;23.77;13.57;;;;;;;7.96;72.13;101586.53;5056110;28;20068;-85
2021/04/01 05:30:01;;;;;;;22.67;13.40;;;;;;;8.04;71.98;101586.28;5050151;28;20055;-85
2021/04/01 05:32:33;;;;;;;24.83;14.55;;;;;;;8.11;71.40;101587.09;5055042;28;20112;-86
2021/04/01 05:35:01;;;;;;;26.50;15.88;;;;;;;8.19;71.92;101581.50;5054900;28;20024;-86
2021/04/01 05:37:27;;;;;;;33.20;16.60;;;;;;;8.25;72.53;101581.69;5054330;28;20029;-86
2021/04/01 05:39:54;;;;;;;25.45;14.27;;;;;;;8.33;72.35;101589.47;5054838;28;20496;-86
2021/04/01 05:42:21;;;;;;;28.50;14.90;;;;;;;8.37;72.55;101590.72;5057434;28;20062;-86
2021/04/01 05:45:03;;;;;;;26.17;14.50;;;;;;;8.41;72.50;101597.25;5066599;28;20033;-86
2021/04/01 06:07:28;;;;;;;23.75;12.40;;;;;;;8.96;71.32;101600.22;5050201;28;20040;-85
2021/04/01 06:09:58;;;;;;;24.42;13.32;;;;;;;9.13;70.49;101609.34;5057828;28;20032;-85
2021/04/01 06:12:31;;;;;;;23.60;13.18;;;;;;;9.26;70.51;101603.91;5061581;28;20543;-86
2021/04/01 06:15:17;;;;;;;17.40;10.98;;;;;;;9.33;68.96;101607.31;5070840;28;20109;-85
2021/04/01 06:17:47;;;;;;;19.60;11.32;;;;;;;9.42;67.67;101615.91;5057893;28;20551;-84
2021/04/01 06:20:15;;;;;;;20.95;10.90;;;;;;;9.55;67.23;101612.31;5053971;28;20443;-85
2021/04/01 06:22:42;;;;;;;21.95;11.80;;;;;;;9.59;66.85;101619.66;5072005;28;20017;-84
2021/04/01 06:25:17;;;;;;;22.77;11.82;;;;;;;9.74;66.07;101613.16;5070174;28;20047;-85
2021/04/01 06:27:55;;;;;;;21.35;12.27;;;;;;;9.74;65.62;101610.47;5069780;28;20036;-85
2021/04/01 06:30:24;;;;;;;18.20;10.57;;;;;;;9.92;65.23;101611.31;5054804;28;20032;-85
2021/04/01 06:33:06;;;;;;;22.35;12.15;;;;;;;10.17;64.47;101616.59;5059856;28;20377;-84
2021/04/01 06:40:26;;;;;;;21.88;11.57;;;;;;;10.78;63.16;101606.78;5072428;28;20019;-84
2021/04/01 06:42:56;;;;;;;24.58;11.50;;;;;;;10.82;62.89;101611.44;5060955;28;20517;-84
2021/04/01 06:45:29;;;;;;;22.73;12.27;;;;;;;10.81;62.96;101604.44;5068793;28;20031;-85
2021/04/01 06:47:56;;;;;;;19.13;10.90;;;;;;;10.91;62.84;101601.19;5074000;28;20481;-85
2021/04/01 06:50:28;;;;;;;20.35;11.40;;;;;;;11.00;62.85;101610.56;5071090;28;20039;-85
2021/04/01 06:56:07;;;;;;;23.58;12.05;;;;;;;11.19;62.36;101622.03;5050949;28;20043;-84
2021/04/01 06:58:49;;;;;;;27.75;13.02;;;;;;;11.29;61.88;101613.38;5076980;28;20031;-85
2021/04/01 07:01:47;;;;;;;23.50;12.63;;;;;;;11.32;61.87;101621.00;5060606;28;20583;-84
2021/04/01 07:04:10;;;;;;;25.45;13.57;;;;;;;11.40;61.80;101626.00;5077163;28;20037;-85
2021/04/01 07:06:40;;;;;;;23.33;13.25;;;;;;;11.39;61.08;101625.19;5059827;28;20482;-84
2021/04/01 07:09:42;;;;;;;24.98;13.15;;;;;;;11.39;61.56;101621.69;5076892;28;20607;-85
2021/04/01 07:12:09;;;;;;;25.00;12.82;;;;;;;11.53;60.79;101623.13;5054418;28;20496;-84
2021/04/01 07:14:38;;;;;;;27.27;13.80;;;;;;;11.55;60.28;101626.38;5075516;28;20039;-84
2021/04/01 07:17:16;;;;;;;26.08;15.85;;;;;;;11.49;60.36;101612.03;5062947;28;20034;-84
2021/04/01 07:47:29;;;;;;;29.90;15.88;;;;;;;11.20;63.46;101683.50;5075199;28;20035;-84
2021/04/01 07:50:06;;;;;;;30.17;16.27;;;;;;;11.04;65.05;101676.09;5074817;28;20026;-85
2021/04/01 07:52:34;;;;;;;26.65;14.82;;;;;;;10.93;66.97;101676.84;5062099;28;20096;-84
2021/04/01 07:55:26;;;;;;;32.40;16.00;;;;;;;10.90;67.21;101675.44;5056357;28;20028;-84
2021/04/01 07:58:13;;;;;;;32.83;16.40;;;;;;;11.04;66.39;101662.69;5062774;28;20611;-84
2021/04/01 08:06:11;;;;;;;38.60;22.02;;;;;;;11.16;69.99;101638.59;5083878;28;20526;-84
2021/04/01 08:08:44;;;;;;;41.10;20.85;;;;;;;11.18;69.98;101633.81;5067552;28;20024;-84
2021/04/01 08:11:11;;;;;;;36.05;19.77;;;;;;;11.28;69.66;101636.72;5064825;28;20025;-84
2021/04/01 08:13:42;;;;;;;43.63;23.73;;;;;;;11.31;71.36;101647.00;5062080;28;20029;-89
2021/04/01 08:16:13;;;;;;;50.80;30.25;;;;;;;11.44;69.82;101635.22;5061229;28;20433;-84
2021/04/01 08:18:41;;;;;;;49.60;26.05;;;;;;;11.42;71.52;101615.88;5072113;28;20039;-85
2021/04/01 08:21:10;;;;;;;46.58;26.35;;;;;;;11.51;70.54;101614.47;5080903;28;20020;-87
2021/04/01 08:23:44;;;;;;;88.10;56.60;;;;;;;11.52;71.60;101617.97;5065166;28;20024;-85
2021/04/01 08:31:59;;;;;;;85.10;54.55;;;;;;;11.52;71.55;101629.53;5076768;28;20169;-86
2021/04/01 08:37:30;;;;;;;59.22;37.20;;;;;;;11.57;71.68;101613.53;5079991;28;20066;-86
2021/04/01 08:39:58;;;;;;;58.13;34.70;;;;;;;11.63;70.91;101601.84;5073051;28;20048;-84
2021/04/01 08:42:42;;;;;;;54.78;28.98;;;;;;;11.86;70.40;101597.56;5080004;28;20089;-86
2021/04/01 08:45:38;;;;;;;56.17;31.85;;;;;;;12.03;71.76;101596.63;5063650;28;20051;-87
2021/04/01 08:48:23;;;;;;;51.22;29.48;;;;;;;12.31;69.43;101600.38;5066144;28;20093;-84
2021/04/01 08:51:07;;;;;;;51.58;29.42;;;;;;;12.19;71.66;101596.91;5066420;28;20032;-84
2021/04/01 08:54:10;;;;;;;44.80;23.42;;;;;;;11.79;72.90;101608.41;5062273;28;20121;-82
2021/04/01 08:56:53;;;;;;;38.10;20.48;;;;;;;12.23;70.26;101601.59;5074239;28;20097;-84
2021/04/01 08:59:26;;;;;;;37.20;21.50;;;;;;;11.79;74.46;101616.47;5075190;28;20027;-84
2021/04/01 09:01:55;;;;;;;33.38;18.05;;;;;;;12.13;71.62;101603.22;5064426;28;20031;-84
2021/04/01 09:04:23;;;;;;;35.85;18.85;;;;;;;12.47;70.95;101593.44;5076573;28;20028;-84
2021/04/01 09:06:52;;;;;;;38.88;19.70;;;;;;;12.73;70.36;101600.91;5082514;28;20024;-84
2021/04/01 09:09:27;;;;;;;38.72;21.45;;;;;;;12.83;69.92;101600.28;5065169;28;20753;-84
2021/04/01 09:14:57;;;;;;;40.13;20.95;;;;;;;13.06;67.85;101589.38;5041886;28;20051;-84
2021/04/01 09:17:31;;;;;;;35.67;19.35;;;;;;;13.10;67.82;101595.06;5060626;28;20024;-84
2021/04/01 09:19:58;;;;;;;41.08;21.10;;;;;;;13.15;67.88;101587.91;5064301;28;20980;-84
2021/04/01 09:22:27;;;;;;;38.38;21.08;;;;;;;13.18;67.72;101598.22;5068675;28;20037;-85
2021/04/01 09:25:00;;;;;;;47.38;22.88;;;;;;;13.09;68.81;101604.22;5065104;28;20023;-85
2021/04/01 09:27:26;;;;;;;41.78;20.58;;;;;;;13.23;67.55;101610.94;5079403;28;20058;-84
2021/04/01 09:30:08;;;;;;;41.42;20.83;;;;;;;13.16;67.50;101605.69;5063763;28;20115;-85
2021/04/01 09:32:38;;;;;;;39.40;20.30;;;;;;;13.32;66.94;101609.47;5062045;28;20063;-85
2021/04/01 09:35:06;;;;;;;42.92;22.58;;;;;;;13.36;66.44;101607.94;5059511;28;20103;-85
2021/04/01 09:37:49;;;;;;;36.42;20.10;;;;;;;12.87;67.67;101613.00;5057624;28;20497;-84
2021/04/01 09:40:15;;;;;;;38.35;20.60;;;;;;;13.12;67.60;101609.94;5064829;28;20036;-85
2021/04/01 09:42:42;;;;;;;39.05;21.40;;;;;;;13.30;66.32;101611.59;5061624;28;20090;-84
2021/04/01 09:45:26;;;;;;;38.60;20.95;;;;;;;13.46;66.28;101618.84;5074778;28;20110;-84
2021/04/01 09:48:00;;;;;;;41.53;20.70;;;;;;;13.58;65.89;101608.78;5082074;28;20123;-85
2021/04/01 09:50:30;;;;;;;34.00;19.55;;;;;;;13.70;65.37;101605.19;5063073;28;20036;-85
2021/04/01 09:53:12;;;;;;;40.67;20.98;;;;;;;13.74;66.38;101606.31;5061850;28;20035;-85
2021/04/01 09:55:43;;;;;;;35.58;19.58;;;;;;;13.92;65.33;101592.56;5063712;28;20031;-85
2021/04/01 09:58:25;;;;;;;36.55;20.20;;;;;;;14.18;64.02;101593.69;5059256;28;20069;-85
2021/04/01 10:03:22;;;;;;;36.42;19.90;;;;;;;14.61;61.23;101590.19;5069905;28;20031;-84
2021/04/01 10:05:49;;;;;;;36.35;18.60;;;;;;;14.76;60.02;101587.63;5062798;28;20028;-85
2021/04/01 10:08:26;;;;;;;40.28;20.20;;;;;;;14.70;58.69;101583.25;5055247;28;20072;-85
2021/04/01 10:10:57;;;;;;;36.47;18.67;;;;;;;14.94;59.31;101581.06;5059462;28;20067;-84
2021/04/01 10:13:28;;;;;;;35.40;18.90;;;;;;;14.74;59.69;101578.16;5056154;28;20034;-84
2021/04/01 10:15:56;;;;;;;40.17;21.15;;;;;;;14.80;59.86;101586.03;5075938;28;20063;-84
2021/04/01 10:18:28;;;;;;;37.95;20.08;;;;;;;14.78;60.49;101580.09;5074955;28;20039;-85
2021/04/01 10:21:23;;;;;;;37.47;20.85;;;;;;;14.42;60.93;101572.69;5077970;28;20029;-85
2021/04/01 10:24:04;;;;;;;43.80;22.17;;;;;;;14.42;60.68;101560.03;5033362;28;20032;-84
2021/04/01 10:26:40;;;;;;;42.25;22.67;;;;;;;14.79;60.44;101556.63;5062677;28;20632;-85
2021/04/01 10:29:10;;;;;;;38.40;20.83;;;;;;;15.03;59.83;101544.41;5059205;28;20038;-84
2021/04/01 10:31:50;;;;;;;35.97;20.38;;;;;;;15.26;59.24;101537.84;5079662;28;20031;-87
2021/04/01 10:34:42;;;;;;;37.78;21.23;;;;;;;15.36;58.80;101532.50;5057622;28;20028;-86
2021/04/01 10:37:10;;;;;;;39.47;20.27;;;;;;;15.31;58.91;101518.16;5060525;28;20807;-90
2021/04/01 10:39:39;;;;;;;38.75;21.40;;;;;;;15.19;59.02;101528.34;5064623;28;20394;-89
2021/04/01 10:42:15;;;;;;;40.10;21.77;;;;;;;14.32;61.42;101532.94;5062569;28;20024;-85
2021/04/01 10:44:41;;;;;;;42.10;21.42;;;;;;;14.90;59.72;101541.31;5055679;28;20037;-86
2021/04/01 10:47:14;;;;;;;40.38;20.70;;;;;;;14.95;59.96;101547.59;5056623;28;20615;-85
2021/04/01 10:49:40;;;;;;;42.15;22.23;;;;;;;14.59;62.07;101538.38;5060399;28;20042;-85
2021/04/01 10:52:10;;;;;;;40.00;22.17;;;;;;;14.24;64.46;101529.91;5059889;28;20024;-85
2021/04/01 10:54:38;;;;;;;42.97;22.95;;;;;;;14.23;65.94;101530.97;5076537;28;20627;-85
2021/04/01 10:57:05;;;;;;;35.30;18.50;;;;;;;14.43;63.90;101528.47;5055846;28;20935;-85
2021/04/01 10:59:46;;;;;;;38.67;20.23;;;;;;;14.55;62.93;101534.56;5063105;28;20032;-85
2021/04/01 11:02:20;;;;;;;39.38;19.05;;;;;;;14.94;61.35;101537.06;5062194;28;20032;-83
2021/04/01 11:04:49;;;;;;;39.05;19.73;;;;;;;15.57;57.88;101540.72;5059205;28;20039;-86
2021/04/01 11:08:09;;;;;;;37.88;18.33;;;;;;;15.86;57.67;101539.28;5058605;28;20036;-86
2021/04/01 11:10:37;;;;;;;37.75;18.88;;;;;;;14.84;58.34;101535.09;5009235;28;20037;-84
2021/04/01 11:13:08;;;;;;;37.53;18.25;;;;;;;14.43;60.28;101525.78;5066293;28;20040;-91
2021/04/01 11:15:40;;;;;;;37.90;18.70;;;;;;;14.52;59.98;101521.56;5062789;28;20032;-91
2021/04/01 11:18:27;;;;;;;37.28;19.77;;;;;;;14.94;58.82;101507.38;5060706;28;20069;-92
2021/04/01 11:21:36;;;;;;;;;;;;;;;;;;;;;
2021/04/01 11:24:10;;;;;;;32.60;18.45;;;;;;;15.86;54.53;101500.63;5074439;28;20036;-91
2021/04/01 11:26:54;;;;;;;33.67;18.17;;;;;;;15.92;55.29;101507.66;5062462;28;20061;-91
2021/04/01 11:29:42;;;;;;;38.33;18.58;;;;;;;15.24;55.55;101512.97;5063302;28;20478;-92
2021/04/01 11:32:40;;;;;;;35.15;18.90;;;;;;;15.91;54.74;101538.47;5061707;28;20032;-91
2021/04/01 11:35:30;;;;;;;34.40;18.98;;;;;;;16.49;53.59;101550.81;5065693;28;20560;-91
2021/04/01 11:38:16;;;;;;;35.42;17.73;;;;;;;16.54;53.60;101561.66;5058231;28;20043;-91
2021/04/01 11:41:03;;;;;;;34.08;19.27;;;;;;;16.18;53.69;101570.75;5061522;28;20028;-91
2021/04/01 11:43:40;;;;;;;39.42;19.63;;;;;;;15.37;53.87;101571.13;5068122;28;20070;-91
2021/04/01 11:46:41;;;;;;;38.90;20.20;;;;;;;15.55;53.08;101581.50;5061132;28;20028;-91
2021/04/01 11:49:27;;;;;;;43.80;22.15;;;;;;;14.88;55.87;101584.75;5047190;28;20032;-91
2021/04/01 11:51:53;;;;;;;41.35;21.50;;;;;;;14.79;55.62;101597.09;5043048;28;20044;-89
2021/04/01 11:54:32;;;;;;;43.53;22.33;;;;;;;14.76;53.94;101592.22;5058196;28;20040;-88
2021/04/01 11:56:58;;;;;;;44.05;22.42;;;;;;;15.09;53.64;101613.56;5060936;28;20683;-87
2021/04/01 11:59:35;;;;;;;44.33;22.90;;;;;;;15.19;53.25;101618.22;5062564;28;20028;-87
2021/04/01 12:02:09;;;;;;;53.72;24.58;;;;;;;15.48;53.30;101624.13;5057787;28;20028;-88
2021/04/01 12:04:56;;;;;;;45.13;23.17;;;;;;;15.70;53.17;101632.13;5075290;28;20036;-90
2021/04/01 12:07:21;;;;;;;42.50;21.95;;;;;;;16.00;51.33;101624.22;5062687;28;20036;-86
2021/04/01 12:09:51;;;;;;;44.03;23.08;;;;;;;16.27;50.09;101626.75;5066387;28;20223;-88
2021/04/01 12:12:33;;;;;;;49.78;24.25;;;;;;;16.01;48.89;101620.44;5066990;28;22104;-88
2021/04/01 12:15:07;;;;;;;48.35;24.25;;;;;;;15.91;49.44;101609.56;5063616;28;20033;-88
2021/04/01 12:17:41;;;;;;;46.35;24.67;;;;;;;15.46;50.42;101628.16;5061745;28;20054;-87
2021/04/01 12:20:14;;;;;;;53.58;25.80;;;;;;;15.06;53.94;101627.56;5073703;28;20073;-86
2021/04/01 12:22:44;;;;;;;44.75;24.02;;;;;;;14.94;55.27;101609.91;5063300;28;20077;-86
2021/04/01 12:25:14;;;;;;;49.67;26.88;;;;;;;14.99;56.05;101596.47;5078639;28;20028;-86
2021/04/01 12:27:58;;;;;;;53.63;27.33;;;;;;;15.07;57.10;101615.69;5065993;28;20024;-88
2021/04/01 12:30:40;;;;;;;47.58;26.65;;;;;;;15.03;59.09;101609.19;5067625;28;20616;-87
2021/04/01 12:33:09;;;;;;;55.08;27.38;;;;;;;14.91;60.82;101613.13;5066272;28;20024;-87
2021/04/01 12:35:48;;;;;;;49.90;26.83;;;;;;;14.93;60.57;101614.50;5066459;28;20028;-87
2021/04/01 12:38:14;;;;;;;49.65;27.00;;;;;;;15.21;59.30;101615.25;5062240;28;20646;-86
2021/04/01 12:44:07;;;;;;;48.80;25.67;;;;;;;15.12;59.08;101609.53;5060539;28;20039;-89
2021/04/01 12:46:47;;;;;;;55.85;26.10;;;;;;;15.19;58.45;101603.91;5077732;28;20194;-87
2021/04/01 12:49:17;;;;;;;54.78;28.35;;;;;;;15.25;58.40;101592.06;5064359;28;20032;-86
2021/04/01 12:51:48;;;;;;;52.28;27.23;;;;;;;16.01;56.48;101598.81;5060685;28;20034;-86
2021/04/01 12:54:19;;;;;;;49.47;26.52;;;;;;;18.28;50.89;101587.41;5063447;28;20051;-86
2021/04/01 12:56:58;;;;;;;53.63;26.30;;;;;;;20.23;46.43;101578.09;5058696;28;20030;-88
2021/04/01 12:59:44;;;;;;;49.58;25.77;;;;;;;21.72;43.00;101574.59;5059265;28;20683;-88
2021/04/01 13:02:16;;;;;;;52.72;27.15;;;;;;;22.74;39.94;101573.22;5065024;28;20105;-88
2021/04/01 13:04:44;;;;;;;52.53;27.98;;;;;;;23.87;37.91;101566.47;5061989;28;20411;-88
2021/04/01 13:09:46;;;;;;;50.95;27.65;;;;;;;20.94;41.52;101559.91;5078152;28;20179;-87
2021/04/01 13:12:19;;;;;;;49.90;28.25;;;;;;;23.23;37.64;101552.34;5066474;28;20017;-89
2021/04/01 13:14:47;;;;;;;49.42;28.00;;;;;;;24.06;35.45;101552.53;5058597;28;20060;-86
2021/04/01 13:17:13;;;;;;;49.03;28.58;;;;;;;25.06;32.83;101560.59;5072125;28;20474;-88
2021/04/01 13:19:40;;;;;;;51.15;29.30;;;;;;;26.16;31.38;101556.06;5059024;28;20032;-87
2021/04/01 13:22:22;;;;;;;48.20;28.17;;;;;;;27.80;29.22;101554.44;5074267;28;20559;-91
2021/04/01 13:25:07;;;;;;;49.38;29.35;;;;;;;26.52;29.76;101555.50;5065862;28;20031;-89